sensor_id;sensor_type;location;lat;lon;timestamp;P1;durP1;ratioP1;P2;durP2;ratioP2
80241;SDS011;69556;45.004;7.532;2023-05-10T00:01:24;17.58;;;11.75;;
80241;SDS011;69556;45.004;7.532;2023-05-10T00:03:49;14.27;;;10.15;;
80241;SDS011;69556;45.004;7.532;2023-05-10T00:06:15;12.73;;;9.73;;
80241;SDS011;69556;45.004;7.532;2023-05-10T00:08:40;12.25;;;8.00;;
80241;SDS011;69556;45.004;7.532;2023-05-10T00:11:06;13.85;;;9.00;;
80241;SDS011;69556;45.004;7.532;2023-05-10T00:13:31;12.73;;;7.72;;
80241;SDS011;69556;45.004;7.532;2023-05-10T00:15:57;10.85;;;8.38;;
80241;SDS011;69556;45.004;7.532;2023-05-10T00:18:22;11.88;;;8.38;;
80241;SDS011;69556;45.004;7.532;2023-05-10T00:20:47;12.87;;;8.70;;
80241;SDS011;69556;45.004;7.532;2023-05-10T00:23:13;12.68;;;9.43;;
80241;SDS011;69556;45.004;7.532;2023-05-10T00:25:39;14.65;;;9.27;;
80241;SDS011;69556;45.004;7.532;2023-05-10T00:28:05;12.30;;;8.57;;
80241;SDS011;69556;45.004;7.532;2023-05-10T00:30:30;14.35;;;9.70;;
80241;SDS011;69556;45.004;7.532;2023-05-10T00:32:55;15.07;;;8.93;;
80241;SDS011;69556;45.004;7.532;2023-05-10T00:35:21;13.83;;;10.23;;
80241;SDS011;69556;45.004;7.532;2023-05-10T00:37:46;13.10;;;9.18;;
80241;SDS011;69556;45.004;7.532;2023-05-10T00:40:12;14.02;;;9.73;;
80241;SDS011;69556;45.004;7.532;2023-05-10T00:42:37;12.35;;;9.15;;
80241;SDS011;69556;45.004;7.532;2023-05-10T00:45:03;12.00;;;8.50;;
80241;SDS011;69556;45.004;7.532;2023-05-10T00:47:28;17.00;;;9.85;;
80241;SDS011;69556;45.004;7.532;2023-05-10T00:49:54;12.10;;;8.85;;
80241;SDS011;69556;45.004;7.532;2023-05-10T00:52:20;13.40;;;8.70;;
80241;SDS011;69556;45.004;7.532;2023-05-10T00:54:48;11.95;;;9.23;;
80241;SDS011;69556;45.004;7.532;2023-05-10T00:57:14;11.07;;;8.18;;
80241;SDS011;69556;45.004;7.532;2023-05-10T00:59:39;12.85;;;8.23;;
80241;SDS011;69556;45.004;7.532;2023-05-10T01:02:05;10.43;;;7.13;;
80241;SDS011;69556;45.004;7.532;2023-05-10T01:04:31;11.40;;;8.13;;
80241;SDS011;69556;45.004;7.532;2023-05-10T01:06:57;11.27;;;8.02;;
80241;SDS011;69556;45.004;7.532;2023-05-10T01:09:23;9.80;;;7.23;;
80241;SDS011;69556;45.004;7.532;2023-05-10T01:11:51;11.77;;;8.30;;
80241;SDS011;69556;45.004;7.532;2023-05-10T01:14:17;13.05;;;8.27;;
80241;SDS011;69556;45.004;7.532;2023-05-10T01:16:44;10.68;;;7.88;;
80241;SDS011;69556;45.004;7.532;2023-05-10T01:21:57;8.55;;;6.30;;
80241;SDS011;69556;45.004;7.532;2023-05-10T01:27:09;11.38;;;7.18;;
80241;SDS011;69556;45.004;7.532;2023-05-10T01:35:06;6.93;;;5.85;;
80241;SDS011;69556;45.004;7.532;2023-05-10T01:37:46;9.00;;;6.72;;
80241;SDS011;69556;45.004;7.532;2023-05-10T01:40:19;7.53;;;6.25;;
80241;SDS011;69556;45.004;7.532;2023-05-10T01:43:01;7.75;;;5.80;;
80241;SDS011;69556;45.004;7.532;2023-05-10T01:45:33;6.95;;;5.25;;
80241;SDS011;69556;45.004;7.532;2023-05-10T01:48:05;6.13;;;4.85;;
80241;SDS011;69556;45.004;7.532;2023-05-10T01:50:34;5.78;;;4.43;;
80241;SDS011;69556;45.004;7.532;2023-05-10T01:53:01;6.82;;;4.10;;
80241;SDS011;69556;45.004;7.532;2023-05-10T01:55:31;6.97;;;4.57;;
80241;SDS011;69556;45.004;7.532;2023-05-10T01:58:02;8.35;;;5.00;;
80241;SDS011;69556;45.004;7.532;2023-05-10T02:00:31;5.95;;;4.70;;
80241;SDS011;69556;45.004;7.532;2023-05-10T02:02:57;5.13;;;3.80;;
80241;SDS011;69556;45.004;7.532;2023-05-10T02:05:25;5.65;;;4.85;;
80241;SDS011;69556;45.004;7.532;2023-05-10T02:07:52;5.13;;;4.50;;
80241;SDS011;69556;45.004;7.532;2023-05-10T02:10:18;4.90;;;4.18;;
80241;SDS011;69556;45.004;7.532;2023-05-10T02:12:46;7.10;;;4.65;;
80241;SDS011;69556;45.004;7.532;2023-05-10T02:15:15;7.25;;;4.38;;
80241;SDS011;69556;45.004;7.532;2023-05-10T02:17:43;8.48;;;3.47;;
80241;SDS011;69556;45.004;7.532;2023-05-10T02:20:11;5.05;;;3.22;;
80241;SDS011;69556;45.004;7.532;2023-05-10T02:22:38;6.20;;;4.10;;
80241;SDS011;69556;45.004;7.532;2023-05-10T02:25:05;5.38;;;3.10;;
80241;SDS011;69556;45.004;7.532;2023-05-10T02:27:33;4.13;;;2.75;;
80241;SDS011;69556;45.004;7.532;2023-05-10T02:29:59;4.25;;;3.05;;
80241;SDS011;69556;45.004;7.532;2023-05-10T02:32:26;3.78;;;2.60;;
80241;SDS011;69556;45.004;7.532;2023-05-10T02:34:52;2.95;;;2.30;;
80241;SDS011;69556;45.004;7.532;2023-05-10T02:37:19;3.53;;;2.25;;
80241;SDS011;69556;45.004;7.532;2023-05-10T02:39:49;3.20;;;2.33;;
80241;SDS011;69556;45.004;7.532;2023-05-10T02:42:17;2.00;;;1.70;;
80241;SDS011;69556;45.004;7.532;2023-05-10T02:44:45;2.20;;;1.25;;
80241;SDS011;69556;45.004;7.532;2023-05-10T02:47:13;1.83;;;1.42;;
80241;SDS011;69556;45.004;7.532;2023-05-10T02:49:38;2.17;;;1.58;;
80241;SDS011;69556;45.004;7.532;2023-05-10T02:52:05;1.77;;;1.25;;
80241;SDS011;69556;45.004;7.532;2023-05-10T02:54:33;2.08;;;1.48;;
80241;SDS011;69556;45.004;7.532;2023-05-10T02:57:04;3.17;;;1.52;;
80241;SDS011;69556;45.004;7.532;2023-05-10T02:59:32;1.95;;;1.40;;
80241;SDS011;69556;45.004;7.532;2023-05-10T03:01:58;2.33;;;1.40;;
80241;SDS011;69556;45.004;7.532;2023-05-10T03:04:25;1.98;;;1.40;;
80241;SDS011;69556;45.004;7.532;2023-05-10T03:06:50;3.75;;;1.60;;
80241;SDS011;69556;45.004;7.532;2023-05-10T03:09:16;1.38;;;1.20;;
80241;SDS011;69556;45.004;7.532;2023-05-10T03:16:56;2.25;;;1.70;;
80241;SDS011;69556;45.004;7.532;2023-05-10T03:19:27;2.13;;;1.60;;
80241;SDS011;69556;45.004;7.532;2023-05-10T03:21:58;2.03;;;1.42;;
80241;SDS011;69556;45.004;7.532;2023-05-10T03:24:28;2.05;;;1.55;;
80241;SDS011;69556;45.004;7.532;2023-05-10T03:26:55;1.42;;;1.33;;
80241;SDS011;69556;45.004;7.532;2023-05-10T03:29:25;1.42;;;1.25;;
80241;SDS011;69556;45.004;7.532;2023-05-10T03:31:51;1.85;;;1.63;;
80241;SDS011;69556;45.004;7.532;2023-05-10T03:34:22;1.40;;;1.30;;
80241;SDS011;69556;45.004;7.532;2023-05-10T03:36:48;1.80;;;1.40;;
80241;SDS011;69556;45.004;7.532;2023-05-10T03:39:13;1.40;;;1.23;;
80241;SDS011;69556;45.004;7.532;2023-05-10T03:41:39;2.05;;;1.48;;
80241;SDS011;69556;45.004;7.532;2023-05-10T03:44:04;1.60;;;0.83;;
80241;SDS011;69556;45.004;7.532;2023-05-10T03:46:29;3.83;;;1.63;;
80241;SDS011;69556;45.004;7.532;2023-05-10T03:48:55;1.30;;;1.20;;
80241;SDS011;69556;45.004;7.532;2023-05-10T03:51:20;3.10;;;1.33;;
80241;SDS011;69556;45.004;7.532;2023-05-10T03:53:45;1.70;;;1.50;;
80241;SDS011;69556;45.004;7.532;2023-05-10T03:56:11;1.40;;;1.17;;
80241;SDS011;69556;45.004;7.532;2023-05-10T03:58:36;4.17;;;1.40;;
80241;SDS011;69556;45.004;7.532;2023-05-10T04:01:02;2.13;;;1.50;;
80241;SDS011;69556;45.004;7.532;2023-05-10T04:03:27;1.38;;;1.23;;
80241;SDS011;69556;45.004;7.532;2023-05-10T04:05:59;3.90;;;1.43;;
80241;SDS011;69556;45.004;7.532;2023-05-10T04:08:25;2.03;;;1.45;;
80241;SDS011;69556;45.004;7.532;2023-05-10T04:10:51;2.40;;;1.73;;
80241;SDS011;69556;45.004;7.532;2023-05-10T04:13:16;2.78;;;1.88;;
80241;SDS011;69556;45.004;7.532;2023-05-10T04:15:42;3.10;;;1.85;;
80241;SDS011;69556;45.004;7.532;2023-05-10T04:18:08;2.00;;;1.42;;
80241;SDS011;69556;45.004;7.532;2023-05-10T04:20:33;3.40;;;1.70;;
80241;SDS011;69556;45.004;7.532;2023-05-10T04:22:59;3.00;;;1.63;;
80241;SDS011;69556;45.004;7.532;2023-05-10T04:25:24;3.78;;;1.90;;
80241;SDS011;69556;45.004;7.532;2023-05-10T04:27:49;3.77;;;1.97;;
80241;SDS011;69556;45.004;7.532;2023-05-10T04:30:15;2.37;;;2.00;;
80241;SDS011;69556;45.004;7.532;2023-05-10T04:32:40;2.60;;;2.10;;
80241;SDS011;69556;45.004;7.532;2023-05-10T04:35:05;2.70;;;1.93;;
80241;SDS011;69556;45.004;7.532;2023-05-10T04:37:31;2.78;;;1.92;;
80241;SDS011;69556;45.004;7.532;2023-05-10T04:39:56;3.00;;;2.17;;
80241;SDS011;69556;45.004;7.532;2023-05-10T04:42:22;2.80;;;2.00;;
80241;SDS011;69556;45.004;7.532;2023-05-10T04:44:47;3.07;;;2.60;;
80241;SDS011;69556;45.004;7.532;2023-05-10T04:47:12;4.80;;;2.27;;
80241;SDS011;69556;45.004;7.532;2023-05-10T04:49:38;3.40;;;2.40;;
80241;SDS011;69556;45.004;7.532;2023-05-10T04:52:03;3.53;;;2.60;;
80241;SDS011;69556;45.004;7.532;2023-05-10T04:54:29;3.35;;;2.70;;
80241;SDS011;69556;45.004;7.532;2023-05-10T04:56:54;3.67;;;2.33;;
80241;SDS011;69556;45.004;7.532;2023-05-10T04:59:20;2.95;;;2.53;;
80241;SDS011;69556;45.004;7.532;2023-05-10T05:01:45;3.53;;;2.80;;
80241;SDS011;69556;45.004;7.532;2023-05-10T05:04:10;3.40;;;2.70;;
80241;SDS011;69556;45.004;7.532;2023-05-10T05:06:36;3.25;;;2.70;;
80241;SDS011;69556;45.004;7.532;2023-05-10T05:09:01;3.67;;;2.77;;
80241;SDS011;69556;45.004;7.532;2023-05-10T05:11:27;5.00;;;3.10;;
80241;SDS011;69556;45.004;7.532;2023-05-10T05:13:52;5.53;;;3.30;;
80241;SDS011;69556;45.004;7.532;2023-05-10T05:16:18;5.43;;;2.85;;
80241;SDS011;69556;45.004;7.532;2023-05-10T05:18:43;4.60;;;3.30;;
80241;SDS011;69556;45.004;7.532;2023-05-10T05:21:15;4.27;;;3.20;;
80241;SDS011;69556;45.004;7.532;2023-05-10T05:23:41;4.82;;;3.60;;
80241;SDS011;69556;45.004;7.532;2023-05-10T05:26:07;5.40;;;3.55;;
80241;SDS011;69556;45.004;7.532;2023-05-10T05:28:32;5.10;;;3.40;;
80241;SDS011;69556;45.004;7.532;2023-05-10T05:30:59;4.68;;;3.38;;
80241;SDS011;69556;45.004;7.532;2023-05-10T05:33:25;6.22;;;3.53;;
80241;SDS011;69556;45.004;7.532;2023-05-10T05:35:50;4.47;;;3.63;;
80241;SDS011;69556;45.004;7.532;2023-05-10T05:38:16;4.45;;;3.50;;
80241;SDS011;69556;45.004;7.532;2023-05-10T05:40:42;5.97;;;3.35;;
80241;SDS011;69556;45.004;7.532;2023-05-10T05:43:07;4.45;;;3.30;;
80241;SDS011;69556;45.004;7.532;2023-05-10T05:45:32;4.57;;;3.43;;
80241;SDS011;69556;45.004;7.532;2023-05-10T05:47:58;5.77;;;3.10;;
80241;SDS011;69556;45.004;7.532;2023-05-10T05:50:23;4.23;;;2.90;;
80241;SDS011;69556;45.004;7.532;2023-05-10T05:52:48;4.17;;;2.90;;
80241;SDS011;69556;45.004;7.532;2023-05-10T05:55:14;3.78;;;2.50;;
80241;SDS011;69556;45.004;7.532;2023-05-10T05:57:39;7.38;;;3.13;;
80241;SDS011;69556;45.004;7.532;2023-05-10T06:00:05;4.60;;;3.03;;
80241;SDS011;69556;45.004;7.532;2023-05-10T06:02:31;4.00;;;3.25;;
80241;SDS011;69556;45.004;7.532;2023-05-10T06:04:56;3.33;;;2.60;;
80241;SDS011;69556;45.004;7.532;2023-05-10T06:07:21;5.55;;;2.75;;
80241;SDS011;69556;45.004;7.532;2023-05-10T06:09:47;3.88;;;2.70;;
80241;SDS011;69556;45.004;7.532;2023-05-10T06:12:12;3.43;;;2.70;;
80241;SDS011;69556;45.004;7.532;2023-05-10T06:14:37;4.68;;;2.55;;
80241;SDS011;69556;45.004;7.532;2023-05-10T06:17:03;4.82;;;3.13;;
80241;SDS011;69556;45.004;7.532;2023-05-10T06:19:30;4.05;;;2.70;;
80241;SDS011;69556;45.004;7.532;2023-05-10T06:21:55;4.43;;;2.97;;
80241;SDS011;69556;45.004;7.532;2023-05-10T06:24:21;4.67;;;3.33;;
80241;SDS011;69556;45.004;7.532;2023-05-10T06:26:46;4.15;;;2.70;;
80241;SDS011;69556;45.004;7.532;2023-05-10T06:29:12;3.53;;;2.72;;
80241;SDS011;69556;45.004;7.532;2023-05-10T06:31:37;4.28;;;3.80;;
80241;SDS011;69556;45.004;7.532;2023-05-10T06:34:02;4.63;;;3.20;;
80241;SDS011;69556;45.004;7.532;2023-05-10T06:36:28;4.77;;;3.40;;
80241;SDS011;69556;45.004;7.532;2023-05-10T06:38:53;5.17;;;3.33;;
80241;SDS011;69556;45.004;7.532;2023-05-10T06:41:19;4.93;;;3.42;;
80241;SDS011;69556;45.004;7.532;2023-05-10T06:43:44;4.63;;;2.90;;
80241;SDS011;69556;45.004;7.532;2023-05-10T06:46:09;6.20;;;3.90;;
80241;SDS011;69556;45.004;7.532;2023-05-10T06:48:35;5.68;;;3.42;;
80241;SDS011;69556;45.004;7.532;2023-05-10T06:51:00;6.18;;;4.03;;
80241;SDS011;69556;45.004;7.532;2023-05-10T06:53:26;4.82;;;3.15;;
80241;SDS011;69556;45.004;7.532;2023-05-10T06:55:51;4.95;;;3.80;;
80241;SDS011;69556;45.004;7.532;2023-05-10T06:58:17;4.65;;;3.40;;
80241;SDS011;69556;45.004;7.532;2023-05-10T07:00:42;5.43;;;3.60;;
80241;SDS011;69556;45.004;7.532;2023-05-10T07:03:09;6.13;;;4.57;;
80241;SDS011;69556;45.004;7.532;2023-05-10T07:05:35;7.90;;;4.18;;
80241;SDS011;69556;45.004;7.532;2023-05-10T07:08:00;5.70;;;4.07;;
80241;SDS011;69556;45.004;7.532;2023-05-10T07:10:25;4.80;;;3.88;;
80241;SDS011;69556;45.004;7.532;2023-05-10T07:12:51;5.70;;;4.00;;
80241;SDS011;69556;45.004;7.532;2023-05-10T07:15:17;6.45;;;4.40;;
80241;SDS011;69556;45.004;7.532;2023-05-10T07:17:43;5.53;;;3.90;;
80241;SDS011;69556;45.004;7.532;2023-05-10T07:20:08;6.20;;;4.20;;
80241;SDS011;69556;45.004;7.532;2023-05-10T07:22:34;6.30;;;4.28;;
80241;SDS011;69556;45.004;7.532;2023-05-10T07:24:59;6.77;;;4.37;;
80241;SDS011;69556;45.004;7.532;2023-05-10T07:27:24;7.87;;;4.63;;
80241;SDS011;69556;45.004;7.532;2023-05-10T07:29:50;7.70;;;3.90;;
80241;SDS011;69556;45.004;7.532;2023-05-10T07:32:16;7.78;;;4.43;;
80241;SDS011;69556;45.004;7.532;2023-05-10T07:34:42;6.57;;;4.20;;
80241;SDS011;69556;45.004;7.532;2023-05-10T07:37:07;8.07;;;4.75;;
80241;SDS011;69556;45.004;7.532;2023-05-10T07:39:32;9.20;;;4.40;;
80241;SDS011;69556;45.004;7.532;2023-05-10T07:41:58;9.23;;;5.10;;
80241;SDS011;69556;45.004;7.532;2023-05-10T07:44:23;8.73;;;4.90;;
80241;SDS011;69556;45.004;7.532;2023-05-10T07:46:48;6.03;;;4.03;;
80241;SDS011;69556;45.004;7.532;2023-05-10T07:49:14;14.05;;;4.38;;
80241;SDS011;69556;45.004;7.532;2023-05-10T07:51:40;6.75;;;4.88;;
80241;SDS011;69556;45.004;7.532;2023-05-10T07:54:07;8.60;;;5.60;;
80241;SDS011;69556;45.004;7.532;2023-05-10T07:56:32;7.88;;;4.93;;
80241;SDS011;69556;45.004;7.532;2023-05-10T07:59:01;7.13;;;5.20;;
80241;SDS011;69556;45.004;7.532;2023-05-10T08:01:32;6.90;;;5.28;;
80241;SDS011;69556;45.004;7.532;2023-05-10T08:03:58;9.27;;;5.78;;
80241;SDS011;69556;45.004;7.532;2023-05-10T08:06:23;10.30;;;5.35;;
80241;SDS011;69556;45.004;7.532;2023-05-10T08:08:51;9.40;;;6.18;;
80241;SDS011;69556;45.004;7.532;2023-05-10T08:11:18;11.88;;;5.53;;
80241;SDS011;69556;45.004;7.532;2023-05-10T08:13:45;11.05;;;6.15;;
80241;SDS011;69556;45.004;7.532;2023-05-10T08:16:11;9.40;;;5.22;;
80241;SDS011;69556;45.004;7.532;2023-05-10T08:18:37;9.18;;;6.10;;
80241;SDS011;69556;45.004;7.532;2023-05-10T08:21:03;8.90;;;5.60;;
80241;SDS011;69556;45.004;7.532;2023-05-10T08:23:29;8.23;;;6.68;;
80241;SDS011;69556;45.004;7.532;2023-05-10T08:25:54;8.65;;;6.28;;
80241;SDS011;69556;45.004;7.532;2023-05-10T08:28:20;10.30;;;5.87;;
80241;SDS011;69556;45.004;7.532;2023-05-10T08:30:45;10.17;;;5.47;;
80241;SDS011;69556;45.004;7.532;2023-05-10T08:33:10;9.45;;;5.65;;
80241;SDS011;69556;45.004;7.532;2023-05-10T08:35:36;6.25;;;4.93;;
80241;SDS011;69556;45.004;7.532;2023-05-10T08:38:01;8.02;;;5.45;;
80241;SDS011;69556;45.004;7.532;2023-05-10T08:40:26;7.05;;;5.68;;
80241;SDS011;69556;45.004;7.532;2023-05-10T08:42:55;6.90;;;4.82;;
80241;SDS011;69556;45.004;7.532;2023-05-10T08:45:33;7.85;;;4.90;;
80241;SDS011;69556;45.004;7.532;2023-05-10T08:48:02;7.60;;;5.28;;
80241;SDS011;69556;45.004;7.532;2023-05-10T08:50:30;9.77;;;5.68;;
80241;SDS011;69556;45.004;7.532;2023-05-10T08:52:57;8.48;;;4.88;;
80241;SDS011;69556;45.004;7.532;2023-05-10T08:55:25;6.25;;;4.63;;
80241;SDS011;69556;45.004;7.532;2023-05-10T08:57:50;6.18;;;4.22;;
80241;SDS011;69556;45.004;7.532;2023-05-10T09:00:16;6.45;;;5.07;;
80241;SDS011;69556;45.004;7.532;2023-05-10T09:02:43;9.35;;;6.20;;
80241;SDS011;69556;45.004;7.532;2023-05-10T09:05:10;10.68;;;5.90;;
80241;SDS011;69556;45.004;7.532;2023-05-10T09:07:36;8.50;;;6.22;;
80241;SDS011;69556;45.004;7.532;2023-05-10T09:10:01;9.27;;;5.72;;
80241;SDS011;69556;45.004;7.532;2023-05-10T09:12:27;7.25;;;5.65;;
80241;SDS011;69556;45.004;7.532;2023-05-10T09:14:53;7.35;;;5.28;;
80241;SDS011;69556;45.004;7.532;2023-05-10T09:17:21;8.25;;;4.75;;
80241;SDS011;69556;45.004;7.532;2023-05-10T09:19:48;7.95;;;5.25;;
80241;SDS011;69556;45.004;7.532;2023-05-10T09:22:14;7.50;;;5.23;;
80241;SDS011;69556;45.004;7.532;2023-05-10T09:24:39;6.22;;;4.60;;
80241;SDS011;69556;45.004;7.532;2023-05-10T09:27:10;5.63;;;4.28;;
80241;SDS011;69556;45.004;7.532;2023-05-10T09:29:39;7.53;;;5.13;;
80241;SDS011;69556;45.004;7.532;2023-05-10T09:32:06;6.45;;;4.60;;
80241;SDS011;69556;45.004;7.532;2023-05-10T09:34:32;6.55;;;4.85;;
80241;SDS011;69556;45.004;7.532;2023-05-10T09:37:00;7.32;;;5.63;;
80241;SDS011;69556;45.004;7.532;2023-05-10T09:42:01;8.15;;;5.10;;
80241;SDS011;69556;45.004;7.532;2023-05-10T09:44:28;6.53;;;5.45;;
80241;SDS011;69556;45.004;7.532;2023-05-10T09:46:54;8.77;;;6.35;;
80241;SDS011;69556;45.004;7.532;2023-05-10T09:49:20;7.30;;;5.55;;
80241;SDS011;69556;45.004;7.532;2023-05-10T09:51:46;6.93;;;5.32;;
80241;SDS011;69556;45.004;7.532;2023-05-10T09:54:16;7.82;;;5.85;;
80241;SDS011;69556;45.004;7.532;2023-05-10T09:56:41;7.05;;;5.20;;
80241;SDS011;69556;45.004;7.532;2023-05-10T09:59:11;12.55;;;6.20;;
80241;SDS011;69556;45.004;7.532;2023-05-10T10:01:49;7.05;;;5.03;;
80241;SDS011;69556;45.004;7.532;2023-05-10T10:04:15;6.93;;;4.88;;
80241;SDS011;69556;45.004;7.532;2023-05-10T10:06:42;6.45;;;4.88;;
80241;SDS011;69556;45.004;7.532;2023-05-10T10:09:07;8.43;;;4.65;;
80241;SDS011;69556;45.004;7.532;2023-05-10T10:11:37;8.43;;;4.70;;
80241;SDS011;69556;45.004;7.532;2023-05-10T10:14:04;7.55;;;4.75;;
80241;SDS011;69556;45.004;7.532;2023-05-10T10:16:30;6.93;;;5.00;;
80241;SDS011;69556;45.004;7.532;2023-05-10T10:18:57;7.18;;;5.55;;
80241;SDS011;69556;45.004;7.532;2023-05-10T10:21:22;9.00;;;5.65;;
80241;SDS011;69556;45.004;7.532;2023-05-10T10:23:48;8.77;;;5.30;;
80241;SDS011;69556;45.004;7.532;2023-05-10T10:26:15;6.95;;;5.50;;
80241;SDS011;69556;45.004;7.532;2023-05-10T10:31:34;5.70;;;4.50;;
80241;SDS011;69556;45.004;7.532;2023-05-10T10:34:05;5.72;;;4.45;;
80241;SDS011;69556;45.004;7.532;2023-05-10T10:36:55;5.65;;;4.32;;
80241;SDS011;69556;45.004;7.532;2023-05-10T10:39:19;5.95;;;4.60;;
80241;SDS011;69556;45.004;7.532;2023-05-10T10:41:55;6.35;;;4.72;;
80241;SDS011;69556;45.004;7.532;2023-05-10T10:49:37;4.97;;;3.70;;
80241;SDS011;69556;45.004;7.532;2023-05-10T10:54:52;6.22;;;3.97;;
80241;SDS011;69556;45.004;7.532;2023-05-10T10:57:22;4.97;;;3.78;;
80241;SDS011;69556;45.004;7.532;2023-05-10T10:59:48;5.32;;;4.30;;
80241;SDS011;69556;45.004;7.532;2023-05-10T11:02:32;5.38;;;4.05;;
80241;SDS011;69556;45.004;7.532;2023-05-10T11:05:22;7.63;;;6.00;;
80241;SDS011;69556;45.004;7.532;2023-05-10T11:07:55;5.50;;;4.40;;
80241;SDS011;69556;45.004;7.532;2023-05-10T11:10:25;6.07;;;4.68;;
80241;SDS011;69556;45.004;7.532;2023-05-10T11:13:04;11.45;;;5.85;;
80241;SDS011;69556;45.004;7.532;2023-05-10T11:15:32;7.85;;;5.50;;
80241;SDS011;69556;45.004;7.532;2023-05-10T11:20:58;5.93;;;5.00;;
80241;SDS011;69556;45.004;7.532;2023-05-10T11:23:31;6.35;;;5.50;;
80241;SDS011;69556;45.004;7.532;2023-05-10T11:25:58;7.88;;;4.85;;
80241;SDS011;69556;45.004;7.532;2023-05-10T11:28:24;4.60;;;3.83;;
80241;SDS011;69556;45.004;7.532;2023-05-10T11:30:51;7.03;;;4.05;;
80241;SDS011;69556;45.004;7.532;2023-05-10T11:33:17;5.93;;;4.10;;
80241;SDS011;69556;45.004;7.532;2023-05-10T11:35:44;4.65;;;3.70;;
80241;SDS011;69556;45.004;7.532;2023-05-10T11:38:10;4.75;;;3.78;;
80241;SDS011;69556;45.004;7.532;2023-05-10T11:40:37;7.18;;;4.43;;
80241;SDS011;69556;45.004;7.532;2023-05-10T11:43:03;5.65;;;3.65;;
80241;SDS011;69556;45.004;7.532;2023-05-10T11:45:31;5.07;;;3.78;;
80241;SDS011;69556;45.004;7.532;2023-05-10T11:47:57;7.50;;;4.43;;
80241;SDS011;69556;45.004;7.532;2023-05-10T11:50:23;5.40;;;4.38;;
80241;SDS011;69556;45.004;7.532;2023-05-10T11:52:59;6.13;;;4.68;;
80241;SDS011;69556;45.004;7.532;2023-05-10T11:55:25;4.88;;;3.85;;
80241;SDS011;69556;45.004;7.532;2023-05-10T11:57:53;5.38;;;4.45;;
80241;SDS011;69556;45.004;7.532;2023-05-10T12:00:19;6.95;;;4.55;;
80241;SDS011;69556;45.004;7.532;2023-05-10T12:02:46;5.60;;;4.43;;
80241;SDS011;69556;45.004;7.532;2023-05-10T12:05:11;5.63;;;4.65;;
80241;SDS011;69556;45.004;7.532;2023-05-10T12:07:37;8.80;;;5.93;;
80241;SDS011;69556;45.004;7.532;2023-05-10T12:12:41;6.57;;;5.55;;
80241;SDS011;69556;45.004;7.532;2023-05-10T12:15:26;6.57;;;5.47;;
80241;SDS011;69556;45.004;7.532;2023-05-10T12:17:52;7.90;;;5.93;;
80241;SDS011;69556;45.004;7.532;2023-05-10T12:20:22;5.57;;;4.78;;
80241;SDS011;69556;45.004;7.532;2023-05-10T12:22:52;11.23;;;4.65;;
80241;SDS011;69556;45.004;7.532;2023-05-10T12:25:20;6.82;;;4.28;;
80241;SDS011;69556;45.004;7.532;2023-05-10T12:27:49;5.88;;;4.35;;
80241;SDS011;69556;45.004;7.532;2023-05-10T12:30:22;6.53;;;4.60;;
80241;SDS011;69556;45.004;7.532;2023-05-10T12:32:49;6.25;;;4.40;;
80241;SDS011;69556;45.004;7.532;2023-05-10T12:35:14;5.72;;;4.50;;
80241;SDS011;69556;45.004;7.532;2023-05-10T12:37:41;5.28;;;4.72;;
80241;SDS011;69556;45.004;7.532;2023-05-10T12:40:08;6.10;;;4.55;;
80241;SDS011;69556;45.004;7.532;2023-05-10T12:45:02;5.57;;;4.65;;
80241;SDS011;69556;45.004;7.532;2023-05-10T12:47:28;5.80;;;4.90;;
80241;SDS011;69556;45.004;7.532;2023-05-10T12:49:54;6.95;;;5.50;;
80241;SDS011;69556;45.004;7.532;2023-05-10T12:52:19;6.13;;;4.03;;
80241;SDS011;69556;45.004;7.532;2023-05-10T12:54:45;13.07;;;10.02;;
80241;SDS011;69556;45.004;7.532;2023-05-10T12:57:11;6.38;;;4.72;;
80241;SDS011;69556;45.004;7.532;2023-05-10T12:59:36;5.38;;;4.20;;
80241;SDS011;69556;45.004;7.532;2023-05-10T13:02:02;6.57;;;5.15;;
80241;SDS011;69556;45.004;7.532;2023-05-10T13:04:27;5.37;;;4.27;;
80241;SDS011;69556;45.004;7.532;2023-05-10T13:06:52;5.13;;;4.50;;
80241;SDS011;69556;45.004;7.532;2023-05-10T13:09:18;4.88;;;4.15;;
80241;SDS011;69556;45.004;7.532;2023-05-10T13:11:43;6.32;;;4.68;;
80241;SDS011;69556;45.004;7.532;2023-05-10T13:14:10;4.95;;;3.67;;
80241;SDS011;69556;45.004;7.532;2023-05-10T13:16:35;6.80;;;4.00;;
80241;SDS011;69556;45.004;7.532;2023-05-10T13:19:00;6.70;;;4.10;;
80241;SDS011;69556;45.004;7.532;2023-05-10T13:21:26;5.03;;;3.90;;
80241;SDS011;69556;45.004;7.532;2023-05-10T13:23:51;5.90;;;4.78;;
80241;SDS011;69556;45.004;7.532;2023-05-10T13:26:17;7.53;;;4.53;;
80241;SDS011;69556;45.004;7.532;2023-05-10T13:28:43;13.50;;;7.40;;
80241;SDS011;69556;45.004;7.532;2023-05-10T13:31:08;9.57;;;7.35;;
80241;SDS011;69556;45.004;7.532;2023-05-10T13:33:33;6.27;;;4.30;;
80241;SDS011;69556;45.004;7.532;2023-05-10T13:35:59;5.28;;;4.18;;
80241;SDS011;69556;45.004;7.532;2023-05-10T13:38:24;4.63;;;3.77;;
80241;SDS011;69556;45.004;7.532;2023-05-10T13:40:49;6.67;;;4.17;;
80241;SDS011;69556;45.004;7.532;2023-05-10T13:45:43;5.45;;;3.90;;
80241;SDS011;69556;45.004;7.532;2023-05-10T13:48:08;5.47;;;4.80;;
80241;SDS011;69556;45.004;7.532;2023-05-10T13:50:33;7.57;;;3.97;;
80241;SDS011;69556;45.004;7.532;2023-05-10T13:52:59;5.95;;;4.55;;
80241;SDS011;69556;45.004;7.532;2023-05-10T13:55:24;6.15;;;4.38;;
80241;SDS011;69556;45.004;7.532;2023-05-10T13:57:49;5.28;;;3.78;;
80241;SDS011;69556;45.004;7.532;2023-05-10T14:00:15;5.67;;;4.30;;
80241;SDS011;69556;45.004;7.532;2023-05-10T14:02:41;6.50;;;4.30;;
80241;SDS011;69556;45.004;7.532;2023-05-10T14:05:06;6.85;;;4.60;;
80241;SDS011;69556;45.004;7.532;2023-05-10T14:07:32;5.28;;;3.92;;
80241;SDS011;69556;45.004;7.532;2023-05-10T14:09:58;7.03;;;4.55;;
80241;SDS011;69556;45.004;7.532;2023-05-10T14:12:23;7.07;;;4.45;;
80241;SDS011;69556;45.004;7.532;2023-05-10T14:14:48;7.53;;;3.97;;
80241;SDS011;69556;45.004;7.532;2023-05-10T14:17:14;5.33;;;3.63;;
80241;SDS011;69556;45.004;7.532;2023-05-10T14:19:39;6.47;;;3.85;;
80241;SDS011;69556;45.004;7.532;2023-05-10T14:22:04;4.63;;;3.70;;
80241;SDS011;69556;45.004;7.532;2023-05-10T14:24:30;5.70;;;3.80;;
80241;SDS011;69556;45.004;7.532;2023-05-10T14:26:55;7.55;;;3.70;;
80241;SDS011;69556;45.004;7.532;2023-05-10T14:29:21;6.10;;;3.53;;
80241;SDS011;69556;45.004;7.532;2023-05-10T14:31:47;4.43;;;3.35;;
80241;SDS011;69556;45.004;7.532;2023-05-10T14:34:12;6.45;;;3.70;;
80241;SDS011;69556;45.004;7.532;2023-05-10T14:36:37;5.38;;;3.90;;
80241;SDS011;69556;45.004;7.532;2023-05-10T14:39:03;5.03;;;3.53;;
80241;SDS011;69556;45.004;7.532;2023-05-10T14:41:29;4.85;;;3.38;;
80241;SDS011;69556;45.004;7.532;2023-05-10T14:43:55;4.85;;;3.40;;
80241;SDS011;69556;45.004;7.532;2023-05-10T14:46:21;5.00;;;3.97;;
80241;SDS011;69556;45.004;7.532;2023-05-10T14:48:46;4.28;;;3.83;;
80241;SDS011;69556;45.004;7.532;2023-05-10T14:51:11;5.10;;;3.70;;
80241;SDS011;69556;45.004;7.532;2023-05-10T14:53:37;4.70;;;3.63;;
80241;SDS011;69556;45.004;7.532;2023-05-10T14:56:02;4.82;;;3.30;;
80241;SDS011;69556;45.004;7.532;2023-05-10T14:58:28;3.80;;;3.00;;
80241;SDS011;69556;45.004;7.532;2023-05-10T15:00:53;5.03;;;3.20;;
80241;SDS011;69556;45.004;7.532;2023-05-10T15:03:18;5.23;;;2.80;;
80241;SDS011;69556;45.004;7.532;2023-05-10T15:05:44;5.73;;;2.57;;
80241;SDS011;69556;45.004;7.532;2023-05-10T15:08:09;5.05;;;2.90;;
80241;SDS011;69556;45.004;7.532;2023-05-10T15:10:35;4.22;;;2.83;;
80241;SDS011;69556;45.004;7.532;2023-05-10T15:13:03;3.88;;;2.72;;
80241;SDS011;69556;45.004;7.532;2023-05-10T15:15:29;5.10;;;2.53;;
80241;SDS011;69556;45.004;7.532;2023-05-10T15:17:54;3.30;;;2.43;;
80241;SDS011;69556;45.004;7.532;2023-05-10T15:20:19;3.95;;;2.80;;
80241;SDS011;69556;45.004;7.532;2023-05-10T15:22:45;3.67;;;2.80;;